createdAt,value
2023-01-11T00:01:21.301Z,0.93
2023-01-11T00:03:50.026Z,0.90
2023-01-11T00:06:20.061Z,1.00
2023-01-11T00:08:48.574Z,1.10
2023-01-11T00:11:17.820Z,1.10
2023-01-11T00:13:49.027Z,1.10
2023-01-11T00:16:18.434Z,1.10
2023-01-11T00:18:46.892Z,1.10
2023-01-11T00:21:15.520Z,1.10
2023-01-11T00:23:45.294Z,1.08
2023-01-11T00:26:14.350Z,1.10
2023-01-11T00:28:42.840Z,1.00
2023-01-11T00:31:11.452Z,1.00
2023-01-11T00:33:39.958Z,1.00
2023-01-11T00:36:09.815Z,1.00
2023-01-11T00:38:54.747Z,0.88
2023-01-11T00:41:42.392Z,1.00
2023-01-11T00:44:28.818Z,1.20
2023-01-11T00:47:14.674Z,1.10
2023-01-11T00:49:43.382Z,1.00
2023-01-11T00:52:12.246Z,1.02
2023-01-11T00:54:42.221Z,1.00
2023-01-11T00:57:12.067Z,1.13
2023-01-11T00:59:40.602Z,1.00
2023-01-11T01:02:10.226Z,0.80
2023-01-11T01:04:38.837Z,0.90
2023-01-11T01:07:07.894Z,1.00
2023-01-11T01:09:36.340Z,0.90
2023-01-11T01:12:06.997Z,0.80
2023-01-11T01:14:36.397Z,0.90
2023-01-11T01:17:08.235Z,0.93
2023-01-11T01:19:38.776Z,0.90
2023-01-11T01:22:07.402Z,0.90
2023-01-11T01:24:35.940Z,0.90
2023-01-11T01:27:04.629Z,0.90
2023-01-11T01:29:33.259Z,0.90
2023-01-11T01:32:02.997Z,0.90
2023-01-11T01:34:31.425Z,0.80
2023-01-11T01:36:59.778Z,0.90
2023-01-11T01:39:28.395Z,0.90
2023-01-11T01:41:56.811Z,0.90
2023-01-11T01:45:00.885Z,0.90
2023-01-11T01:47:44.410Z,1.08
2023-01-11T01:50:21.466Z,0.80
2023-01-11T01:52:52.902Z,0.90
2023-01-11T01:55:28.246Z,0.80
2023-01-11T01:57:58.894Z,1.00
2023-01-11T02:00:27.457Z,0.80
2023-01-11T02:02:59.925Z,0.80
2023-01-11T02:05:28.734Z,0.80
2023-01-11T02:08:00.851Z,0.80
2023-01-11T02:10:29.464Z,0.80
2023-01-11T02:13:02.147Z,0.75
2023-01-11T02:15:30.979Z,0.80
2023-01-11T02:18:00.737Z,0.80
2023-01-11T02:21:02.498Z,0.80
2023-01-11T02:23:55.475Z,0.70
2023-01-11T02:27:07.659Z,0.80
2023-01-11T02:29:52.362Z,0.90
2023-01-11T02:32:28.905Z,0.80
2023-01-11T02:35:06.491Z,0.80
2023-01-11T02:37:43.742Z,0.90
2023-01-11T02:40:25.108Z,0.77
2023-01-11T02:43:16.324Z,1.00
2023-01-11T02:45:53.200Z,0.80
2023-01-11T02:48:38.309Z,0.90
2023-01-11T02:53:42.520Z,0.80
2023-01-11T02:56:17.317Z,0.80
2023-01-11T02:58:47.898Z,0.70
2023-01-11T03:01:19.029Z,0.80
2023-01-11T03:03:47.556Z,0.80
2023-01-11T03:06:20.644Z,0.80
2023-01-11T03:09:12.672Z,0.90
2023-01-11T03:12:11.944Z,0.80
2023-01-11T03:14:49.484Z,0.80
2023-01-11T03:17:32.427Z,0.80
2023-01-11T03:20:10.552Z,0.85
2023-01-11T03:22:49.015Z,0.90
2023-01-11T03:25:23.468Z,0.80
2023-01-11T03:27:57.447Z,0.80
2023-01-11T03:30:35.875Z,0.80
2023-01-11T03:33:11.811Z,0.80
2023-01-11T03:35:44.253Z,0.80
2023-01-11T03:38:17.936Z,0.80
2023-01-11T03:40:51.670Z,0.80
2023-01-11T03:43:22.709Z,0.80
2023-01-11T03:45:55.068Z,0.80
2023-01-11T03:48:29.563Z,0.80
2023-01-11T03:51:02.912Z,0.85
2023-01-11T03:53:34.895Z,0.90
2023-01-11T03:56:06.867Z,1.08
2023-01-11T03:58:37.357Z,0.90
2023-01-11T04:01:05.965Z,1.02
2023-01-11T04:03:35.796Z,0.95
2023-01-11T04:06:04.430Z,1.00
2023-01-11T04:08:32.935Z,0.90
2023-01-11T04:11:01.343Z,1.00
2023-01-11T04:13:29.725Z,1.00
2023-01-11T04:15:58.205Z,1.00
2023-01-11T04:18:26.814Z,0.90
2023-01-11T04:20:56.718Z,1.05
2023-01-11T04:23:25.117Z,0.95
2023-01-11T04:25:53.597Z,1.10
2023-01-11T04:28:22.011Z,1.20
2023-01-11T04:30:50.474Z,1.10
2023-01-11T04:33:19.572Z,1.13
2023-01-11T04:35:49.902Z,1.30
2023-01-11T04:38:19.875Z,1.00
2023-01-11T04:40:49.007Z,1.15
2023-01-11T04:43:16.416Z,1.10
2023-01-11T04:45:44.894Z,1.00
2023-01-11T04:48:13.641Z,1.20
2023-01-11T04:50:42.597Z,1.27
2023-01-11T04:53:11.182Z,1.15
2023-01-11T04:55:41.172Z,1.10
2023-01-11T04:58:10.135Z,1.20
2023-01-11T05:00:38.773Z,1.30
2023-01-11T05:03:07.347Z,1.33
2023-01-11T05:05:36.436Z,1.30
2023-01-11T05:08:05.014Z,1.40
2023-01-11T05:10:33.876Z,1.70
2023-01-11T05:13:04.229Z,1.33
2023-01-11T05:15:35.786Z,1.17
2023-01-11T05:18:06.311Z,1.30
2023-01-11T05:20:36.073Z,1.40
2023-01-11T05:23:04.841Z,1.25
2023-01-11T05:25:33.437Z,1.30
2023-01-11T05:28:03.611Z,1.27
2023-01-11T05:30:36.468Z,1.40
2023-01-11T05:33:07.882Z,1.60
2023-01-11T05:35:36.905Z,1.60
2023-01-11T05:38:06.376Z,1.70
2023-01-11T05:40:35.946Z,1.70
2023-01-11T05:43:10.386Z,1.70
2023-01-11T05:45:38.972Z,1.55
2023-01-11T05:48:08.298Z,1.70
2023-01-11T05:50:39.051Z,1.65
2023-01-11T05:53:08.210Z,1.65
2023-01-11T05:55:39.614Z,1.30
2023-01-11T05:58:09.453Z,1.73
2023-01-11T06:00:38.039Z,2.30
2023-01-11T06:03:06.940Z,2.05
2023-01-11T06:05:36.144Z,1.70
2023-01-11T06:08:05.494Z,2.30
2023-01-11T06:10:35.613Z,2.13
2023-01-11T06:13:22.766Z,2.30
2023-01-11T06:15:56.651Z,2.45
2023-01-11T06:18:25.559Z,2.30
2023-01-11T06:21:05.239Z,2.42
2023-01-11T06:23:35.538Z,2.65
2023-01-11T06:26:05.253Z,2.67
2023-01-11T06:28:34.850Z,2.67
2023-01-11T06:31:09.311Z,2.42
2023-01-11T06:33:38.657Z,2.40
2023-01-11T06:36:09.269Z,2.83
2023-01-11T06:38:38.470Z,3.08
2023-01-11T06:41:09.671Z,3.10
2023-01-11T06:43:42.106Z,3.10
2023-01-11T06:46:14.100Z,2.78
2023-01-11T06:48:43.006Z,2.80
2023-01-11T06:51:12.554Z,2.60
2023-01-11T06:53:42.174Z,2.80
2023-01-11T06:56:13.991Z,2.35
2023-01-11T06:58:43.985Z,2.55
2023-01-11T07:01:15.834Z,2.60
2023-01-11T07:03:45.437Z,3.00
2023-01-11T07:06:14.293Z,2.85
2023-01-11T07:08:43.731Z,2.70
2023-01-11T07:11:13.570Z,2.65
2023-01-11T07:13:42.537Z,2.45
2023-01-11T07:16:17.804Z,2.80
2023-01-11T07:18:54.059Z,2.90
2023-01-11T07:21:23.086Z,3.10
2023-01-11T07:23:53.125Z,3.30
2023-01-11T07:26:21.731Z,3.03
2023-01-11T07:28:50.164Z,3.40
2023-01-11T07:31:18.712Z,2.85
2023-01-11T07:33:47.221Z,2.88
2023-01-11T07:36:16.942Z,2.42
2023-01-11T07:38:45.398Z,2.20
2023-01-11T07:41:27.624Z,1.83
2023-01-11T07:43:56.070Z,1.70
2023-01-11T07:46:24.566Z,1.65
2023-01-11T07:48:53.248Z,1.40
2023-01-11T07:51:24.349Z,1.90
2023-01-11T07:53:52.880Z,1.67
2023-01-11T07:56:23.437Z,1.40
2023-01-11T07:58:52.016Z,1.30
2023-01-11T08:01:20.341Z,1.33
2023-01-11T08:03:48.952Z,1.33
2023-01-11T08:06:17.561Z,1.35
2023-01-11T08:08:50.027Z,1.30
2023-01-11T08:11:35.918Z,1.27
2023-01-11T08:14:21.570Z,1.17
2023-01-11T08:16:49.963Z,1.10
2023-01-11T08:19:18.569Z,1.00
2023-01-11T08:21:46.980Z,1.13
2023-01-11T08:24:17.035Z,1.45
2023-01-11T08:26:46.916Z,1.05
2023-01-11T08:29:15.382Z,1.20
2023-01-11T08:31:45.163Z,1.30
2023-01-11T08:34:19.438Z,2.40
2023-01-11T08:36:47.965Z,2.30
2023-01-11T08:39:17.835Z,2.00
2023-01-11T08:41:46.264Z,1.70
2023-01-11T08:44:22.310Z,1.90
2023-01-11T08:47:02.519Z,2.20
2023-01-11T08:49:31.463Z,2.00
2023-01-11T08:51:59.910Z,2.05
2023-01-11T08:54:29.654Z,1.83
2023-01-11T08:56:58.165Z,1.65
2023-01-11T08:59:26.688Z,1.60
2023-01-11T09:01:55.095Z,1.70
2023-01-11T09:04:25.413Z,2.00
2023-01-11T09:06:54.792Z,1.67
2023-01-11T09:09:23.348Z,2.13
2023-01-11T09:11:56.868Z,1.77
2023-01-11T09:14:27.160Z,2.20
2023-01-11T09:16:56.667Z,1.75
2023-01-11T09:19:25.589Z,2.10
2023-01-11T09:21:58.120Z,2.65
2023-01-11T09:24:26.721Z,2.78
2023-01-11T09:27:00.605Z,2.42
2023-01-11T09:29:29.283Z,2.58
2023-01-11T09:32:00.767Z,2.50
2023-01-11T09:34:29.127Z,2.80
2023-01-11T09:37:00.660Z,3.08
2023-01-11T09:39:29.572Z,3.15
2023-01-11T09:42:15.598Z,3.17
2023-01-11T09:44:51.656Z,3.17
2023-01-11T09:47:32.506Z,2.60
2023-01-11T09:50:16.663Z,2.65
2023-01-11T09:52:49.755Z,2.70
2023-01-11T09:55:24.604Z,2.78
2023-01-11T10:00:42.889Z,2.90
2023-01-11T10:03:39.470Z,2.90
2023-01-11T10:06:17.506Z,2.60
2023-01-11T10:18:32.088Z,2.65
2023-01-11T10:18:44.804Z,2.88
2023-01-11T10:21:15.835Z,3.22
2023-01-11T10:23:50.697Z,3.13
2023-01-11T10:26:31.180Z,2.75
2023-01-11T10:29:21.906Z,2.90
2023-01-11T10:32:33.878Z,3.13
2023-01-11T10:35:33.038Z,2.72
2023-01-11T10:38:25.303Z,2.70
2023-01-11T10:41:09.587Z,3.13
2023-01-11T10:43:42.654Z,2.85
2023-01-11T10:46:17.197Z,3.17
2023-01-11T10:48:49.054Z,2.72
2023-01-11T10:51:27.266Z,2.92
2023-01-11T10:54:02.954Z,3.42
2023-01-11T10:57:01.659Z,3.28
2023-01-11T10:59:48.586Z,2.78
2023-01-11T11:02:30.011Z,2.97
2023-01-11T11:05:12.865Z,2.80
2023-01-11T11:07:51.237Z,2.92
2023-01-11T11:10:25.804Z,2.90
2023-01-11T11:15:33.673Z,3.63
2023-01-11T11:18:02.160Z,4.00
2023-01-11T11:20:34.138Z,3.67
2023-01-11T11:23:02.601Z,4.70
2023-01-11T11:25:47.817Z,3.95
2023-01-11T11:28:28.212Z,4.18
2023-01-11T11:30:59.016Z,4.55
2023-01-11T11:33:35.492Z,4.38
2023-01-11T11:36:12.559Z,4.57
2023-01-11T11:39:01.825Z,4.35
2023-01-11T11:41:30.304Z,4.22
2023-01-11T11:44:18.596Z,4.43
2023-01-11T11:46:58.594Z,4.80
2023-01-11T11:49:28.191Z,4.80
2023-01-11T11:52:00.377Z,5.30
2023-01-11T11:54:31.601Z,5.10
2023-01-11T11:57:13.674Z,4.60
2023-01-11T11:59:47.301Z,4.70
2023-01-11T12:02:26.021Z,4.10
2023-01-11T12:04:57.466Z,4.47
2023-01-11T12:07:34.431Z,4.15
2023-01-11T12:10:12.838Z,3.97
2023-01-11T12:12:51.068Z,3.75
2023-01-11T12:15:23.598Z,3.92
2023-01-11T12:17:55.131Z,4.05
2023-01-11T12:20:32.201Z,3.22
2023-01-11T12:23:16.849Z,4.03
2023-01-11T12:26:12.543Z,3.47
2023-01-11T12:29:08.183Z,3.78
2023-01-11T12:31:50.360Z,3.42
2023-01-11T12:34:33.573Z,2.72
2023-01-11T12:37:17.046Z,2.65
2023-01-11T12:39:54.576Z,2.95
2023-01-11T12:42:51.044Z,2.95
2023-01-11T12:45:37.215Z,2.35
2023-01-11T12:48:26.308Z,2.30
2023-01-11T12:51:07.557Z,2.25
2023-01-11T12:53:52.894Z,2.30
2023-01-11T12:56:36.524Z,2.28
2023-01-11T12:59:18.520Z,2.35
2023-01-11T13:01:57.243Z,2.30
2023-01-11T13:05:00.418Z,2.47
2023-01-11T13:07:39.958Z,2.22
2023-01-11T13:10:34.204Z,2.40
2023-01-11T13:13:12.120Z,2.47
2023-01-11T13:15:49.473Z,2.40
2023-01-11T13:18:28.646Z,2.33
2023-01-11T13:21:03.226Z,1.98
2023-01-11T13:23:40.239Z,2.10
2023-01-11T13:26:18.719Z,2.63
2023-01-11T13:28:53.012Z,2.10
2023-01-11T13:31:21.606Z,2.13
2023-01-11T13:33:57.338Z,1.85
2023-01-11T13:36:29.418Z,2.00
2023-01-11T13:39:03.530Z,2.20
2023-01-11T13:41:39.307Z,2.30
2023-01-11T13:44:16.860Z,2.15
2023-01-11T13:46:54.896Z,2.20
2023-01-11T13:49:49.188Z,2.20
2023-01-11T13:52:20.881Z,2.05
2023-01-11T13:55:05.597Z,2.10
2023-01-11T13:57:44.472Z,2.13
2023-01-11T14:00:23.679Z,1.60
2023-01-11T14:02:59.882Z,1.95
2023-01-11T14:05:35.094Z,1.90
2023-01-11T14:08:18.791Z,2.00
2023-01-11T14:10:56.395Z,1.83
2023-01-11T14:14:06.464Z,2.45
2023-01-11T14:16:46.281Z,1.55
2023-01-11T14:19:23.794Z,2.00
2023-01-11T14:22:05.821Z,1.80
2023-01-11T14:24:39.658Z,1.75
2023-01-11T14:27:25.683Z,1.90
2023-01-11T14:30:27.948Z,1.75
2023-01-11T14:33:36.854Z,2.38
2023-01-11T14:36:29.711Z,2.10
2023-01-11T14:39:24.531Z,1.58
2023-01-11T14:42:31.069Z,2.05
2023-01-11T14:45:23.428Z,1.60
2023-01-11T14:48:04.956Z,1.80
2023-01-11T14:50:46.570Z,1.40
2023-01-11T14:53:21.000Z,1.52
2023-01-11T14:55:49.797Z,1.70
2023-01-11T14:58:24.857Z,1.80
2023-01-11T15:01:09.537Z,1.70
2023-01-11T15:03:58.529Z,1.20
2023-01-11T15:06:53.922Z,1.70
2023-01-11T15:09:44.772Z,1.70
2023-01-11T15:12:15.075Z,1.88
2023-01-11T15:14:48.358Z,1.80
2023-01-11T15:17:37.437Z,1.67
2023-01-11T15:20:11.828Z,1.85
2023-01-11T15:22:42.357Z,1.63
2023-01-11T15:25:22.968Z,1.83
2023-01-11T15:27:54.896Z,2.15
2023-01-11T15:30:43.098Z,1.70
2023-01-11T15:33:46.726Z,2.13
2023-01-11T15:36:19.892Z,2.10
2023-01-11T15:39:02.110Z,1.92
2023-01-11T15:42:06.532Z,2.05
2023-01-11T15:44:53.738Z,2.40
2023-01-11T15:47:54.880Z,1.80
2023-01-11T15:50:52.382Z,1.85
2023-01-11T15:53:45.859Z,2.22
2023-01-11T15:56:47.704Z,2.60
2023-01-11T15:59:56.579Z,1.48
2023-01-11T16:03:13.382Z,1.67
2023-01-11T16:05:45.176Z,1.65
2023-01-11T16:08:20.617Z,2.00
2023-01-11T16:10:57.814Z,2.00
2023-01-11T16:14:01.340Z,1.85
2023-01-11T16:16:32.358Z,2.03
2023-01-11T16:19:08.995Z,2.05
2023-01-11T16:21:44.134Z,1.88
2023-01-11T16:24:20.332Z,2.10
2023-01-11T16:26:52.253Z,1.67
2023-01-11T16:29:24.685Z,2.00
2023-01-11T16:31:58.431Z,1.80
2023-01-11T16:34:33.355Z,2.22
2023-01-11T16:37:03.441Z,2.13
2023-01-11T16:39:35.697Z,2.20
2023-01-11T16:42:11.796Z,1.73
2023-01-11T16:44:53.249Z,1.60
2023-01-11T16:47:23.154Z,1.80
2023-01-11T16:50:21.253Z,1.45
2023-01-11T16:52:53.350Z,1.95
2023-01-11T16:55:36.057Z,2.15
2023-01-11T16:58:07.953Z,1.95
2023-01-11T17:00:42.251Z,1.92
2023-01-11T17:03:22.505Z,2.10
2023-01-11T17:06:26.281Z,1.80
2023-01-11T17:08:56.737Z,1.90
2023-01-11T17:11:32.362Z,1.70
2023-01-11T17:14:33.917Z,2.10
2023-01-11T17:17:07.906Z,2.00
2023-01-11T17:19:45.314Z,1.77
2023-01-11T17:22:26.559Z,2.03
2023-01-11T17:24:59.946Z,1.75
2023-01-11T17:27:35.607Z,2.00
2023-01-11T17:30:06.615Z,2.53
2023-01-11T17:32:39.173Z,2.00
2023-01-11T17:35:15.671Z,1.73
2023-01-11T17:37:46.436Z,1.75
2023-01-11T17:40:24.041Z,1.60
2023-01-11T17:43:10.619Z,1.42
2023-01-11T17:45:39.581Z,1.73
2023-01-11T17:48:15.046Z,2.17
2023-01-11T17:50:49.043Z,1.55
2023-01-11T17:53:22.227Z,2.20
2023-01-11T17:55:52.257Z,1.90
2023-01-11T17:58:26.188Z,1.70
2023-01-11T18:01:18.146Z,1.80
2023-01-11T18:03:52.638Z,1.80
2023-01-11T18:06:25.323Z,1.60
2023-01-11T18:08:55.566Z,1.80
2023-01-11T18:11:26.168Z,1.95
2023-01-11T18:13:56.388Z,1.85
2023-01-11T18:16:25.028Z,1.60
2023-01-11T18:18:55.825Z,1.85
2023-01-11T18:21:52.667Z,1.90
2023-01-11T18:24:45.039Z,2.05
2023-01-11T18:27:26.265Z,1.50
2023-01-11T18:29:55.979Z,1.60
2023-01-11T18:32:24.686Z,1.65
2023-01-11T18:34:56.300Z,1.80
2023-01-11T18:37:24.709Z,2.00
2023-01-11T18:39:53.975Z,1.85
2023-01-11T18:42:28.623Z,1.50
2023-01-11T18:47:27.213Z,1.63
2023-01-11T18:49:57.980Z,1.67
2023-01-11T18:52:27.972Z,1.42
2023-01-11T18:54:57.142Z,1.70
2023-01-11T18:57:26.283Z,2.40
2023-01-11T18:59:55.772Z,1.63
2023-01-11T19:02:26.816Z,1.77
2023-01-11T19:04:58.008Z,1.95
2023-01-11T19:07:27.465Z,1.73
2023-01-11T19:09:55.943Z,1.58
2023-01-11T19:12:24.851Z,1.70
2023-01-11T19:15:01.667Z,1.80
2023-01-11T19:17:30.138Z,1.70
2023-01-11T19:20:00.040Z,1.70
2023-01-11T19:22:33.333Z,1.65
2023-01-11T19:25:01.837Z,1.85
2023-01-11T19:27:30.270Z,1.75
2023-01-11T19:30:06.153Z,2.00
2023-01-11T19:32:34.594Z,1.75
2023-01-11T19:35:04.701Z,1.42
2023-01-11T19:37:34.127Z,1.92
2023-01-11T19:40:02.714Z,1.98
2023-01-11T19:42:31.250Z,2.15
2023-01-11T19:44:59.695Z,2.30
2023-01-11T19:47:28.190Z,2.25
2023-01-11T19:49:59.008Z,1.92
2023-01-11T19:52:29.068Z,2.47
2023-01-11T19:54:58.099Z,2.25
2023-01-11T19:57:27.496Z,1.77
2023-01-11T19:59:55.947Z,1.67
2023-01-11T20:02:24.566Z,1.70
2023-01-11T20:04:53.044Z,2.00
2023-01-11T20:07:21.727Z,2.65
2023-01-11T20:09:51.703Z,2.10
2023-01-11T20:12:20.160Z,1.98
2023-01-11T20:14:48.751Z,1.92
2023-01-11T20:17:20.888Z,2.30
2023-01-11T20:19:54.517Z,2.33
2023-01-11T20:22:23.665Z,2.20
2023-01-11T20:24:56.972Z,2.50
2023-01-11T20:27:25.551Z,1.73
2023-01-11T20:29:54.168Z,2.10
2023-01-11T20:32:40.450Z,2.33
2023-01-11T20:35:11.425Z,1.77
2023-01-11T20:37:39.878Z,1.73
2023-01-11T20:40:14.179Z,2.20
2023-01-11T20:42:43.096Z,1.92
2023-01-11T20:45:12.855Z,2.10
2023-01-11T20:47:41.332Z,1.92
2023-01-11T20:50:10.902Z,2.20
2023-01-11T20:52:42.237Z,1.92
2023-01-11T20:55:12.419Z,1.80
2023-01-11T20:57:42.006Z,1.95
2023-01-11T21:00:14.406Z,2.00
2023-01-11T21:02:47.824Z,1.95
2023-01-11T21:05:21.373Z,1.80
2023-01-11T21:07:53.778Z,2.13
2023-01-11T21:10:27.428Z,1.80
2023-01-11T21:13:04.381Z,1.98
2023-01-11T21:15:34.729Z,1.58
2023-01-11T21:18:03.161Z,1.70
2023-01-11T21:20:35.028Z,1.70
2023-01-11T21:23:10.728Z,2.10
2023-01-11T21:25:44.031Z,1.75
2023-01-11T21:28:13.727Z,1.80
2023-01-11T21:30:42.173Z,1.80
2023-01-11T21:33:10.551Z,1.60
2023-01-11T21:35:39.002Z,1.67
2023-01-11T21:38:07.502Z,1.88
2023-01-11T21:40:35.934Z,1.70
2023-01-11T21:43:07.749Z,1.88
2023-01-11T21:45:36.254Z,2.22
2023-01-11T21:48:07.239Z,1.60
2023-01-11T21:50:35.654Z,1.90
2023-01-11T21:53:06.049Z,2.05
2023-01-11T21:55:34.566Z,1.95
2023-01-11T21:58:02.938Z,1.73
2023-01-11T22:00:32.874Z,1.75
2023-01-11T22:03:04.024Z,1.85
2023-01-11T22:05:33.122Z,2.03
2023-01-11T22:08:18.610Z,2.25
2023-01-11T22:10:59.072Z,2.08
2023-01-11T22:13:29.632Z,1.92
2023-01-11T22:16:02.163Z,1.80
2023-01-11T22:18:30.996Z,1.60
2023-01-11T22:21:06.043Z,2.25
2023-01-11T22:23:37.593Z,2.10
2023-01-11T22:26:09.631Z,1.70
2023-01-11T22:28:55.173Z,1.70
2023-01-11T22:31:27.366Z,2.08
2023-01-11T22:33:56.708Z,1.92
2023-01-11T22:36:26.099Z,1.70
2023-01-11T22:38:55.347Z,1.80
2023-01-11T22:41:25.431Z,2.00
2023-01-11T22:43:54.708Z,1.77
2023-01-11T22:46:25.914Z,1.63
2023-01-11T22:48:54.645Z,1.67
2023-01-11T22:51:24.997Z,1.80
2023-01-11T22:53:55.157Z,1.60
2023-01-11T22:56:25.961Z,1.70
2023-01-11T22:58:55.047Z,1.80
2023-01-11T23:01:26.325Z,1.75
2023-01-11T23:03:56.244Z,1.70
2023-01-11T23:06:26.461Z,1.58
2023-01-11T23:08:55.468Z,1.60
2023-01-11T23:11:43.371Z,1.55
2023-01-11T23:14:14.345Z,1.55
2023-01-11T23:16:44.876Z,1.75
2023-01-11T23:19:16.873Z,1.52
2023-01-11T23:21:46.138Z,1.58
2023-01-11T23:24:16.430Z,1.60
2023-01-11T23:26:45.456Z,1.80
2023-01-11T23:29:14.217Z,1.77
2023-01-11T23:31:44.322Z,2.38
2023-01-11T23:34:12.975Z,2.00
2023-01-11T23:36:43.019Z,1.85
2023-01-11T23:39:15.011Z,1.77
2023-01-11T23:42:04.521Z,1.85
2023-01-11T23:44:38.251Z,2.03
2023-01-11T23:47:22.027Z,2.00
2023-01-11T23:49:51.183Z,2.00
2023-01-11T23:52:20.817Z,1.80
2023-01-11T23:54:51.181Z,2.20
2023-01-11T23:57:21.339Z,2.03
2023-01-11T23:59:53.898Z,2.25
